Time;durP1;ratioP1;P1;durP2;ratioP2;P2;SDS_P1;SDS_P2;PMS_P1;PMS_P2;Temp;Humidity;BMP_temperature;BMP_pressure;BME280_temperature;BME280_humidity;BME280_pressure;Samples;Min_cycle;Max_cycle;Signal;HPM_P1;HPM_P2
2021/06/02 00:01:04;;;;;;;7.43;3.15;;;;;;;15.44;41.98;100337.81;3483708;28;19924;-76
2021/06/02 00:02:56;;;;;;;5.70;2.80;;;;;;;15.47;42.00;100341.94;3482758;28;20997;-75
2021/06/02 00:04:48;;;;;;;6.38;2.80;;;;;;;15.44;42.17;100337.81;3468209;28;20128;-75
2021/06/02 00:06:30;;;;;;;4.68;2.58;;;;;;;15.43;42.12;100346.88;3469922;28;20041;-76
2021/06/02 00:08:12;;;;;;;9.15;3.63;;;;;;;15.43;42.15;100348.75;3469976;28;20041;-76
2021/06/02 00:09:54;;;;;;;5.18;2.83;;;;;;;15.39;42.29;100350.22;3469985;28;20192;-76
2021/06/02 00:11:35;;;;;;;;;;;;;;;15.48;41.95;100348.94;3469326;28;20412;-75
2021/06/02 00:13:17;;;;;;;4.95;2.80;;;;;;;15.39;42.09;100347.53;3469694;28;20441;-75
2021/06/02 00:14:58;;;;;;;4.65;2.50;;;;;;;15.39;42.14;100347.53;3470254;28;20368;-76
2021/06/02 00:16:38;;;;;;;7.47;2.88;;;;;;;15.38;42.25;100348.56;3482673;28;20195;-77
2021/06/02 00:18:19;;;;;;;7.72;2.95;;;;;;;15.36;42.34;100350.63;3483399;28;20040;-76
2021/06/02 00:20:00;;;;;;;6.35;2.47;;;;;;;15.35;42.29;100354.34;3478779;28;20111;-75
2021/06/02 00:21:42;;;;;;;7.85;2.55;;;;;;;15.33;42.36;100349.16;3469445;28;20501;-77
2021/06/02 00:23:23;;;;;;;6.95;2.80;;;;;;;15.29;42.50;100344.44;3469941;28;20049;-75
2021/06/02 00:25:05;;;;;;;3.90;2.58;;;;;;;15.31;42.44;100347.72;3469782;28;20048;-75
2021/06/02 00:26:46;;;;;;;4.03;1.95;;;;;;;15.30;42.56;100349.59;3468608;28;20041;-75
2021/06/02 00:28:28;;;;;;;3.15;2.15;;;;;;;15.29;42.59;100355.19;3472874;28;20098;-75
2021/06/02 00:30:10;;;;;;;9.13;2.88;;;;;;;15.29;42.78;100349.81;3482578;28;20041;-75
2021/06/02 00:31:52;;;;;;;6.80;2.58;;;;;;;15.22;42.68;100339.91;3483221;28;20040;-76
2021/06/02 00:33:33;;;;;;;6.20;2.33;;;;;;;15.26;42.79;100351.88;3483548;28;20123;-76
2021/06/02 00:35:16;;;;;;;8.88;2.95;;;;;;;15.25;42.82;100358.28;3483045;28;20051;-77
2021/06/02 00:36:59;;;;;;;3.85;2.60;;;;;;;15.26;42.63;100353.75;3483054;28;20048;-76
2021/06/02 00:38:40;;;;;;;3.70;2.70;;;;;;;15.24;42.75;100345.06;3483338;28;20439;-75
2021/06/02 00:40:31;;;;;;;5.10;2.87;;;;;;;15.25;42.67;100357.44;3479882;28;20038;-77
2021/06/02 00:42:11;;;;;;;5.47;2.17;;;;;;;15.22;42.74;100347.94;3483565;28;20048;-78
2021/06/02 00:43:52;;;;;;;4.15;2.10;;;;;;;15.24;42.75;100351.25;3483414;28;20068;-77
2021/06/02 00:45:33;;;;;;;5.18;2.17;;;;;;;15.21;42.93;100346.31;3482272;28;20045;-77
2021/06/02 00:47:14;;;;;;;5.30;2.23;;;;;;;15.21;42.85;100354.38;3483223;28;20408;-77
2021/06/02 00:48:55;;;;;;;6.55;2.42;;;;;;;15.21;43.01;100358.94;3482943;28;20294;-76
2021/06/02 00:50:36;;;;;;;4.13;1.92;;;;;;;15.19;42.97;100355.63;3468470;28;20471;-77
2021/06/02 00:52:17;;;;;;;6.55;2.03;;;;;;;15.11;43.01;100340.53;3472020;28;20124;-75
2021/06/02 00:53:59;;;;;;;6.93;2.22;;;;;;;15.14;43.10;100348.19;3482623;28;20035;-75
2021/06/02 00:55:41;;;;;;;2.92;1.70;;;;;;;15.12;43.17;100352.09;3482970;28;20174;-76
2021/06/02 00:57:22;;;;;;;;;;;;;;;15.20;42.97;100358.06;3482429;28;20063;-76
2021/06/02 00:59:03;;;;;;;4.70;1.90;;;;;;;15.13;43.13;100354.59;3479416;28;19920;-76
2021/06/02 01:00:44;;;;;;;3.83;1.85;;;;;;;15.11;43.10;100358.50;3481087;28;20052;-76
2021/06/02 01:02:25;;;;;;;2.28;1.52;;;;;;;15.05;43.19;100352.13;3469215;28;20051;-76
2021/06/02 01:04:05;;;;;;;3.13;1.42;;;;;;;15.10;43.61;100360.38;3469281;28;20440;-76
2021/06/02 01:05:46;;;;;;;4.78;1.85;;;;;;;15.08;43.44;100357.06;3469118;28;20124;-76
2021/06/02 01:07:27;;;;;;;2.88;2.10;;;;;;;15.04;43.39;100355.81;3469251;28;20463;-76
2021/06/02 01:09:08;;;;;;;3.95;1.98;;;;;;;15.07;43.56;100363.47;3468072;28;20037;-76
2021/06/02 01:10:51;;;;;;;3.10;2.38;;;;;;;15.04;43.85;100359.31;3465624;28;20508;-76
2021/06/02 01:12:35;;;;;;;3.28;1.85;;;;;;;15.02;43.71;100361.41;3468330;28;20041;-74
2021/06/02 01:14:19;;;;;;;4.95;2.15;;;;;;;15.05;43.56;100368.22;3466548;28;20045;-76
2021/06/02 01:16:00;;;;;;;2.40;1.67;;;;;;;15.04;43.77;100358.50;3468908;28;20049;-76
2021/06/02 01:17:41;;;;;;;1.63;1.50;;;;;;;15.01;43.84;100358.94;3468880;28;20065;-76
2021/06/02 01:19:23;;;;;;;4.10;1.90;;;;;;;15.00;43.86;100349.22;3469308;28;20098;-76
2021/06/02 01:21:10;;;;;;;3.92;1.98;;;;;;;15.03;43.83;100357.69;3468711;28;20806;-75
2021/06/02 01:22:51;;;;;;;5.35;1.70;;;;;;;15.03;43.78;100352.31;3468388;28;20052;-76
2021/06/02 01:24:32;;;;;;;2.80;2.15;;;;;;;15.02;43.87;100355.19;3468867;28;20049;-75
2021/06/02 01:26:13;;;;;;;2.17;1.98;;;;;;;15.02;43.86;100348.00;3469859;28;20033;-75
2021/06/02 01:27:54;;;;;;;2.65;1.85;;;;;;;15.05;43.77;100354.81;3482924;28;20114;-76
2021/06/02 01:29:36;;;;;;;3.45;1.80;;;;;;;15.05;43.77;100349.44;3482983;28;20455;-76
2021/06/02 01:31:23;;;;;;;;;;;;;;;15.12;43.63;100350.22;3483097;28;20150;-76
2021/06/02 01:33:15;;;;;;;2.15;1.95;;;;;;;15.06;43.76;100343.03;3467873;28;19957;-76
2021/06/02 01:35:14;;;;;;;;;;;;;;;15.13;43.38;100351.09;3481246;28;20136;-76
2021/06/02 01:37:13;;;;;;;3.75;1.80;;;;;;;15.08;43.67;100342.84;3482380;28;19974;-75
2021/06/02 01:39:23;;;;;;;1.40;1.30;;;;;;;15.08;43.71;100345.50;3481438;28;20065;-75
2021/06/02 01:41:29;;;;;;;3.13;1.70;;;;;;;15.05;43.87;100346.75;3467653;28;20049;-76
2021/06/02 01:43:12;;;;;;;2.97;1.67;;;;;;;15.01;43.79;100346.31;3469891;28;20053;-76
2021/06/02 01:44:53;;;;;;;2.45;1.80;;;;;;;15.01;43.89;100349.00;3468923;28;20037;-75
2021/06/02 01:46:52;;;;;;;4.75;1.60;;;;;;;15.01;43.93;100351.69;3468754;28;20048;-76
2021/06/02 01:48:35;;;;;;;5.90;2.17;;;;;;;15.03;43.88;100357.69;3468577;28;20408;-76
2021/06/02 01:50:32;;;;;;;4.57;1.83;;;;;;;15.02;43.97;100350.69;3473292;28;20045;-76
2021/06/02 01:52:35;;;;;;;1.67;1.58;;;;;;;15.10;43.84;100362.22;3482466;28;20055;-77
2021/06/02 01:54:31;;;;;;;2.67;1.65;;;;;;;15.06;44.01;100361.81;3482306;28;20068;-76
2021/06/02 01:56:30;;;;;;;4.05;1.70;;;;;;;15.09;43.94;100352.53;3482139;28;20052;-75
2021/06/02 01:58:36;;;;;;;1.88;1.38;;;;;;;15.10;44.15;100357.69;3482359;28;20045;-76
2021/06/02 02:01:04;;;;;;;2.33;1.83;;;;;;;15.13;43.79;100351.09;3472695;28;20090;-77
2021/06/02 02:02:56;;;;;;;1.83;1.63;;;;;;;15.08;43.89;100354.38;3494274;28;21130;-77
2021/06/02 02:04:57;;;;;;;1.65;1.38;;;;;;;15.09;44.08;100356.03;3462312;28;20050;-77
2021/06/02 02:06:50;;;;;;;1.65;1.40;;;;;;;15.08;44.08;100354.38;3482466;28;20041;-78
2021/06/02 02:08:43;;;;;;;2.47;1.50;;;;;;;15.07;44.03;100352.72;3482167;28;20041;-78
2021/06/02 02:10:39;;;;;;;3.05;1.98;;;;;;;15.10;43.87;100352.31;3467501;28;20507;-76
2021/06/02 02:12:44;;;;;;;2.03;1.50;;;;;;;15.13;44.04;100356.47;3466655;28;20068;-76
2021/06/02 02:14:56;;;;;;;3.83;2.38;;;;;;;15.14;44.03;100353.53;3481922;28;20040;-77
2021/06/02 02:17:01;;;;;;;5.35;1.77;;;;;;;15.18;43.88;100354.78;3483478;28;20106;-76
2021/06/02 02:19:13;;;;;;;5.53;2.42;;;;;;;15.20;43.87;100350.00;3455316;28;20153;-77
2021/06/02 02:21:07;;;;;;;2.40;1.70;;;;;;;15.21;44.01;100359.75;3468704;28;20527;-75
2021/06/02 02:22:59;;;;;;;5.55;1.92;;;;;;;15.23;43.96;100357.69;3468936;28;20048;-75
2021/06/02 02:24:54;;;;;;;2.30;1.70;;;;;;;15.24;44.00;100359.31;3469713;28;20041;-76
2021/06/02 02:27:06;;;;;;;2.88;2.15;;;;;;;15.30;43.96;100362.22;3469138;28;20049;-76
2021/06/02 02:28:51;;;;;;;2.53;1.55;;;;;;;15.29;44.02;100360.56;3468665;28;20128;-75
2021/06/02 02:30:57;;;;;;;6.72;1.88;;;;;;;15.34;43.92;100358.09;3468505;28;20045;-77
2021/06/02 02:33:20;;;;;;;4.35;1.60;;;;;;;15.37;43.95;100363.84;3477628;28;20519;-74
2021/06/02 02:35:15;;;;;;;9.02;1.95;;;;;;;15.36;44.08;100355.97;3473681;28;20048;-77
2021/06/02 02:37:04;;;;;;;5.10;2.50;;;;;;;15.35;44.08;100359.72;3483852;28;20056;-78
2021/06/02 02:39:10;;;;;;;8.75;4.40;;;;;;;15.39;44.04;100350.22;3485103;28;20305;-78
2021/06/02 02:41:09;;;;;;;7.70;4.22;;;;;;;15.40;44.02;100351.84;3485522;28;20120;-75
2021/06/02 02:42:59;;;;;;;5.40;2.53;;;;;;;15.40;44.01;100357.22;3485002;28;20136;-77
2021/06/02 02:44:58;;;;;;;3.72;2.00;;;;;;;15.45;43.99;100360.13;3483962;28;20073;-75
2021/06/02 02:46:45;;;;;;;3.05;2.35;;;;;;;15.46;44.05;100359.06;3470052;28;20049;-75
2021/06/02 02:48:34;;;;;;;3.53;2.35;;;;;;;15.50;43.93;100357.63;3467884;28;20053;-73
2021/06/02 02:50:39;;;;;;;3.17;2.10;;;;;;;15.56;43.84;100359.47;3470671;28;20535;-77
2021/06/02 02:52:41;;;;;;;3.50;1.90;;;;;;;15.60;43.92;100362.56;3470068;28;20120;-77
2021/06/02 02:54:30;;;;;;;8.15;2.42;;;;;;;15.60;43.83;100359.88;3470978;28;20476;-77
2021/06/02 02:56:45;;;;;;;4.95;2.25;;;;;;;15.66;43.84;100365.22;3456030;28;20049;-72
2021/06/02 02:58:53;;;;;;;4.60;2.03;;;;;;;15.69;43.83;100361.31;3439739;28;20053;-77
2021/06/02 03:00:45;;;;;;;6.78;2.25;;;;;;;15.72;43.88;100365.44;3478586;28;20098;-73
2021/06/02 03:02:30;;;;;;;4.68;2.22;;;;;;;15.72;43.85;100363.59;3482928;28;20041;-76
2021/06/02 03:04:27;;;;;;;4.00;2.17;;;;;;;15.77;43.87;100360.25;3454804;28;20058;-76
2021/06/02 03:06:20;;;;;;;3.50;2.40;;;;;;;15.80;43.88;100352.63;3469275;28;20041;-77
2021/06/02 03:08:10;;;;;;;4.68;2.13;;;;;;;15.84;43.85;100358.38;3470787;28;20053;-76
2021/06/02 03:10:14;;;;;;;8.20;2.95;;;;;;;15.89;43.81;100361.25;3471025;28;20035;-77
2021/06/02 03:12:26;;;;;;;5.50;2.25;;;;;;;15.92;43.62;100360.81;3470117;28;20455;-76
2021/06/02 03:14:21;;;;;;;4.72;2.78;;;;;;;15.95;43.56;100367.63;3470707;28;20099;-76
2021/06/02 03:16:06;;;;;;;3.50;2.65;;;;;;;15.97;43.49;100363.69;3456007;28;20045;-76
2021/06/02 03:18:02;;;;;;;6.05;2.42;;;;;;;16.02;43.50;100360.38;3465321;28;20059;-76
2021/06/02 03:19:53;;;;;;;3.47;2.67;;;;;;;16.02;43.44;100365.75;3468980;28;20095;-76
2021/06/02 03:21:42;;;;;;;4.47;2.58;;;;;;;16.02;43.53;100365.75;3470390;28;20047;-74
2021/06/02 03:23:33;;;;;;;5.30;3.25;;;;;;;16.05;43.60;100371.50;3470559;28;20416;-76
2021/06/02 03:25:23;;;;;;;3.90;2.50;;;;;;;16.06;43.41;100362.44;3455920;28;20424;-76
2021/06/02 03:27:09;;;;;;;5.18;2.50;;;;;;;16.07;43.31;100361.38;3467750;28;20047;-74
2021/06/02 03:29:08;;;;;;;6.50;2.85;;;;;;;16.12;43.37;100372.31;3470419;28;20048;-73
2021/06/02 03:31:15;;;;;;;6.13;2.35;;;;;;;16.12;43.36;100358.88;3470591;28;20167;-74
2021/06/02 03:33:16;;;;;;;2.97;2.15;;;;;;;16.19;43.31;100368.78;3475240;28;20118;-77
2021/06/02 03:35:27;;;;;;;4.18;2.42;;;;;;;16.20;43.40;100367.75;3480216;28;20036;-76
2021/06/02 03:37:46;;;;;;;3.90;2.42;;;;;;;16.26;43.24;100366.88;3476913;28;20107;-76
2021/06/02 03:39:49;;;;;;;4.68;2.35;;;;;;;16.29;43.08;100371.84;3470460;28;20508;-77
2021/06/02 03:41:35;;;;;;;;;;;;;;;16.41;42.98;100377.34;3471241;28;20052;-77
2021/06/02 03:43:28;;;;;;;4.97;2.75;;;;;;;16.37;43.00;100379.66;3457904;28;19960;-77
2021/06/02 03:45:31;;;;;;;3.65;2.20;;;;;;;16.43;42.82;100378.78;3467838;28;20506;-77
2021/06/02 03:47:41;;;;;;;8.30;2.67;;;;;;;16.45;42.77;100390.16;3470498;28;20045;-77
2021/06/02 03:49:48;;;;;;;6.13;3.03;;;;;;;16.53;42.81;100383.69;3472807;28;20128;-76
2021/06/02 03:51:38;;;;;;;5.97;2.47;;;;;;;16.54;42.95;100383.47;3469112;28;20038;-78
2021/06/02 03:53:28;;;;;;;5.50;2.58;;;;;;;16.60;42.87;100389.03;3470294;28;20045;-78
2021/06/02 03:55:33;;;;;;;6.38;2.50;;;;;;;16.60;43.05;100389.03;3470076;28;20097;-75
2021/06/02 03:57:19;;;;;;;12.65;3.13;;;;;;;16.64;42.84;100387.56;3468697;28;20053;-79
2021/06/02 03:59:35;;;;;;;11.27;2.35;;;;;;;16.69;42.80;100385.03;3469062;28;20041;-76
2021/06/02 04:01:33;;;;;;;13.48;2.60;;;;;;;16.73;42.74;100394.34;3470094;28;20041;-75
2021/06/02 04:03:24;;;;;;;5.47;2.30;;;;;;;16.73;42.82;100388.97;3470690;28;20049;-77
2021/06/02 04:05:33;;;;;;;4.60;2.30;;;;;;;16.81;42.55;100396.78;3470424;28;20071;-78
2021/06/02 04:07:31;;;;;;;8.10;2.30;;;;;;;16.86;42.39;100409.63;3470472;28;20500;-78
2021/06/02 04:09:13;;;;;;;4.80;1.95;;;;;;;16.86;42.41;100399.66;3468445;28;20045;-78
2021/06/02 04:11:08;;;;;;;;;;;;;;;16.98;42.36;100405.97;3467100;28;20645;-74
2021/06/02 04:13:23;;;;;;;4.72;2.10;;;;;;;16.99;42.23;100413.03;3470268;28;20380;-76
2021/06/02 04:15:06;;;;;;;3.47;1.98;;;;;;;17.03;41.92;100404.50;3468405;28;20080;-75
2021/06/02 04:16:49;;;;;;;6.82;2.28;;;;;;;17.07;41.98;100400.34;3471649;28;20508;-78
2021/06/02 04:18:30;;;;;;;4.68;1.83;;;;;;;17.12;42.04;100403.19;3482738;28;20056;-76
2021/06/02 04:20:11;;;;;;;4.30;1.98;;;;;;;17.14;42.21;100406.47;3477808;28;20049;-71
2021/06/02 04:21:53;;;;;;;2.88;1.88;;;;;;;17.19;42.05;100396.72;3469599;28;20057;-75
2021/06/02 04:23:37;;;;;;;4.13;1.83;;;;;;;17.25;41.94;100405.78;3468450;28;20136;-77
2021/06/02 04:25:18;;;;;;;3.80;2.95;;;;;;;17.28;41.59;100407.19;3469759;28;20044;-78
2021/06/02 04:27:00;;;;;;;6.25;2.78;;;;;;;17.31;41.71;100404.88;3470103;28;20801;-76
2021/06/02 04:28:43;;;;;;;4.78;2.13;;;;;;;17.36;41.55;100399.66;3469525;28;20048;-79
2021/06/02 04:30:24;;;;;;;3.50;2.08;;;;;;;17.41;41.37;100409.75;3478034;28;20044;-78
2021/06/02 04:32:08;;;;;;;2.30;2.10;;;;;;;17.48;41.31;100401.59;3483353;28;20479;-79
2021/06/02 04:33:49;;;;;;;3.70;1.90;;;;;;;17.44;41.07;100396.66;3484278;28;20496;-78
2021/06/02 04:35:31;;;;;;;4.65;1.92;;;;;;;17.56;41.02;100410.25;3475433;28;20045;-77
2021/06/02 04:37:12;;;;;;;5.18;2.88;;;;;;;17.60;41.07;100408.72;3468490;28;20133;-75
2021/06/02 04:38:54;;;;;;;4.22;1.90;;;;;;;17.63;41.13;100413.69;3470335;28;20055;-75
2021/06/02 04:40:37;;;;;;;;;;;;;;;17.76;40.88;100415.44;3480506;28;20037;-76
2021/06/02 04:42:19;;;;;;;3.95;1.73;;;;;;;17.75;40.83;100419.16;3469124;28;20002;-76
2021/06/02 04:44:00;;;;;;;2.63;1.90;;;;;;;17.78;41.03;100418.72;3466396;28;20041;-78
2021/06/02 04:45:52;;;;;;;7.97;2.25;;;;;;;17.85;40.39;100414.09;3477702;28;20044;-74
2021/06/02 04:47:35;;;;;;;2.10;1.88;;;;;;;17.89;40.52;100422.59;3483233;28;20052;-76
2021/06/02 04:49:16;;;;;;;2.97;2.10;;;;;;;17.91;40.49;100415.06;3483747;28;20368;-75
2021/06/02 04:51:24;;;;;;;13.43;1.92;;;;;;;18.01;40.25;100425.34;3483427;28;20575;-73
2021/06/02 04:53:32;;;;;;;6.03;2.72;;;;;;;18.08;40.08;100418.81;3469544;28;20038;-76
2021/06/02 04:55:48;;;;;;;10.27;4.97;;;;;;;18.18;39.92;100422.88;3468286;28;20135;-75
2021/06/02 04:58:05;;;;;;;13.95;3.80;;;;;;;18.26;39.65;100428.78;3467312;28;20053;-77
2021/06/02 05:00:20;;;;;;;5.63;2.70;;;;;;;18.34;39.24;100426.81;3470296;28;20045;-78
2021/06/02 05:02:19;;;;;;;2.78;2.33;;;;;;;18.40;39.08;100428.59;3481513;28;20041;-79
2021/06/02 05:04:11;;;;;;;4.57;2.75;;;;;;;18.45;39.21;100428.75;3470264;28;20100;-76
2021/06/02 05:06:29;;;;;;;7.00;2.50;;;;;;;18.54;38.95;100432.78;3469847;28;20046;-80
2021/06/02 05:09:03;;;;;;;22.63;7.03;;;;;;;18.71;42.92;100430.25;3468999;28;20045;-73
2021/06/02 05:11:16;;;;;;;34.90;5.78;;;;;;;18.92;45.51;100439.72;3471326;28;20076;-73
2021/06/02 05:13:24;;;;;;;14.68;4.78;;;;;;;19.10;45.45;100439.66;3464444;28;20108;-75
2021/06/02 05:15:23;;;;;;;21.10;4.97;;;;;;;19.30;46.57;100441.22;3468953;28;20102;-73
2021/06/02 05:17:22;;;;;;;19.30;5.35;;;;;;;19.53;45.79;100453.91;3469146;28;20041;-74
2021/06/02 05:22:06;;;;;;;14.45;4.20;;;;;;;19.89;44.48;100446.66;3467519;28;20048;-71
2021/06/02 05:23:52;;;;;;;11.75;3.72;;;;;;;20.03;43.81;100453.44;3467753;28;20508;-75
2021/06/02 05:25:55;;;;;;;6.00;2.42;;;;;;;20.16;41.74;100457.75;3472096;28;20044;-73
2021/06/02 05:27:59;;;;;;;13.18;3.00;;;;;;;20.22;41.22;100454.13;3471956;28;20052;-71
2021/06/02 05:30:15;;;;;;;7.78;2.50;;;;;;;20.27;40.74;100457.75;3473897;28;20037;-74
2021/06/02 05:32:17;;;;;;;15.02;2.28;;;;;;;20.26;40.09;100460.69;3478545;28;20049;-72
2021/06/02 05:34:27;;;;;;;13.98;3.20;;;;;;;20.35;40.94;100456.53;3470033;28;20041;-75
2021/06/02 05:36:17;;;;;;;5.80;2.67;;;;;;;20.35;41.23;100437.59;3477889;28;20059;-73
2021/06/02 05:38:33;;;;;;;3.92;2.78;;;;;;;20.59;40.89;100457.31;3478083;28;20128;-72
2021/06/02 05:40:42;;;;;;;5.72;2.03;;;;;;;20.72;40.28;100452.66;3471315;28;20227;-75
2021/06/02 05:42:26;;;;;;;2.75;1.98;;;;;;;20.79;39.90;100454.16;3481689;28;20568;-72
2021/06/02 05:44:44;;;;;;;4.40;1.77;;;;;;;20.87;39.04;100445.63;3480087;28;20068;-72
2021/06/02 05:47:10;;;;;;;5.53;2.13;;;;;;;20.95;39.72;100457.16;3469457;28;20139;-73
2021/06/02 05:49:15;;;;;;;9.38;2.38;;;;;;;20.99;39.23;100452.88;3468856;28;20049;-73
2021/06/02 05:51:33;;;;;;;17.98;2.75;;;;;;;21.05;39.42;100458.13;3468299;28;20049;-73
2021/06/02 05:53:51;;;;;;;10.93;2.08;;;;;;;21.16;40.63;100452.88;3480541;28;20087;-76
2021/06/02 05:55:40;;;;;;;8.70;2.40;;;;;;;21.25;40.88;100467.69;3480996;28;20052;-75
2021/06/02 05:57:33;;;;;;;6.75;2.13;;;;;;;21.32;39.56;100454.78;3483049;28;20076;-75
2021/06/02 05:59:33;;;;;;;6.55;1.83;;;;;;;21.42;38.88;100451.44;3464193;28;20041;-78
2021/06/02 06:01:35;;;;;;;7.40;2.42;;;;;;;21.38;37.20;100459.25;3470108;28;20037;-75
2021/06/02 06:03:28;;;;;;;;;;;;;;;21.47;38.04;100459.66;3469660;28;20048;-76
2021/06/02 06:06:03;;;;;;;6.30;1.95;;;;;;;21.52;37.80;100459.75;3480269;28;19925;-76
2021/06/02 06:08:04;;;;;;;4.72;2.28;;;;;;;21.50;37.54;100453.72;3466605;28;20029;-75
2021/06/02 06:10:10;;;;;;;6.60;2.25;;;;;;;21.58;37.55;100466.06;3480207;28;20041;-73
2021/06/02 06:11:51;;;;;;;5.85;2.20;;;;;;;21.60;37.27;100464.72;3477880;28;20135;-73
2021/06/02 06:14:11;;;;;;;10.90;2.80;;;;;;;21.68;37.55;100471.63;3481660;28;20045;-70
2021/06/02 06:16:29;;;;;;;8.43;2.00;;;;;;;21.74;37.18;100471.47;3466711;28;20041;-74
2021/06/02 06:18:48;;;;;;;8.85;2.00;;;;;;;21.86;37.30;100473.25;3482172;28;20136;-73
2021/06/02 06:20:53;;;;;;;5.75;2.08;;;;;;;21.92;36.63;100473.09;3467052;28;20111;-72
2021/06/02 06:22:55;;;;;;;4.20;2.20;;;;;;;22.04;36.10;100470.25;3465814;28;20091;-71
2021/06/02 06:24:41;;;;;;;5.68;1.52;;;;;;;22.11;35.73;100465.44;3466413;28;20054;-71
2021/06/02 06:26:30;;;;;;;9.90;1.92;;;;;;;22.23;35.46;100469.97;3467147;28;20041;-72
2021/06/02 06:28:34;;;;;;;3.15;1.85;;;;;;;22.39;35.05;100460.94;3468241;28;20045;-71
2021/06/02 06:30:18;;;;;;;5.45;1.77;;;;;;;22.49;35.24;100449.38;3467346;28;20247;-70
2021/06/02 06:32:00;;;;;;;9.43;2.03;;;;;;;22.63;34.73;100456.84;3465124;28;20594;-71
2021/06/02 06:33:42;;;;;;;3.60;1.50;;;;;;;22.76;34.75;100450.19;3468182;28;20045;-70
2021/06/02 06:35:26;;;;;;;2.53;1.73;;;;;;;22.88;35.91;100455.47;3468391;28;20154;-71
2021/06/02 06:37:08;;;;;;;3.20;1.60;;;;;;;23.04;35.39;100459.19;3467151;28;20042;-71
2021/06/02 06:38:58;;;;;;;3.08;1.52;;;;;;;23.19;35.05;100466.66;3464864;28;20037;-71
2021/06/02 06:40:40;;;;;;;3.88;1.38;;;;;;;23.29;34.66;100453.97;3466131;28;20048;-73
2021/06/02 06:42:23;;;;;;;1.58;1.48;;;;;;;23.40;34.22;100454.84;3464713;28;20076;-72
2021/06/02 06:44:06;;;;;;;4.68;1.92;;;;;;;23.54;33.54;100454.41;3464801;28;20076;-70
2021/06/02 06:45:48;;;;;;;3.70;1.50;;;;;;;23.63;33.06;100453.66;3464815;28;20491;-71
2021/06/02 06:47:34;;;;;;;2.15;1.40;;;;;;;23.72;33.19;100457.56;3464532;28;20060;-72
2021/06/02 06:49:15;;;;;;;2.30;1.50;;;;;;;23.83;32.94;100453.00;3467837;28;20140;-72
2021/06/02 06:50:59;;;;;;;7.07;1.80;;;;;;;23.93;33.20;100455.78;3467177;28;20511;-72
2021/06/02 06:52:43;;;;;;;2.30;1.38;;;;;;;24.08;33.25;100456.91;3465006;28;20037;-70
2021/06/02 06:54:24;;;;;;;4.70;1.70;;;;;;;24.20;33.00;100448.53;3464814;28;20038;-72
2021/06/02 06:56:09;;;;;;;2.63;1.60;;;;;;;24.32;32.36;100454.59;3467203;28;20049;-70
2021/06/02 06:57:50;;;;;;;3.67;1.83;;;;;;;24.42;31.90;100459.22;3464924;28;20049;-71
2021/06/02 06:59:33;;;;;;;4.47;1.92;;;;;;;24.53;31.54;100460.94;3464474;28;20145;-70
2021/06/02 07:01:15;;;;;;;4.40;1.80;;;;;;;24.61;31.83;100445.97;3465153;28;20053;-71
2021/06/02 07:02:56;;;;;;;5.07;1.95;;;;;;;24.69;32.92;100443.53;3468203;28;20045;-72
2021/06/02 07:04:37;;;;;;;5.20;1.87;;;;;;;24.76;32.47;100449.53;3480941;28;20045;-70
2021/06/02 07:06:18;;;;;;;5.28;1.40;;;;;;;24.80;32.53;100450.63;3467232;28;20034;-71
2021/06/02 07:07:59;;;;;;;2.50;1.50;;;;;;;24.89;32.69;100445.47;3464678;28;20192;-71
2021/06/02 07:09:40;;;;;;;2.72;1.52;;;;;;;24.96;32.66;100439.72;3467257;28;20072;-71
2021/06/02 07:11:21;;;;;;;2.67;1.40;;;;;;;25.04;32.49;100441.91;3468001;28;20050;-70
2021/06/02 07:13:06;;;;;;;1.45;1.33;;;;;;;25.12;32.07;100441.41;3480661;28;20554;-70
2021/06/02 07:14:48;;;;;;;3.47;1.70;;;;;;;25.17;31.62;100443.31;3469256;28;20181;-70
2021/06/02 07:16:29;;;;;;;4.90;1.88;;;;;;;25.19;31.39;100435.69;3467672;28;20037;-71
2021/06/02 07:18:11;;;;;;;3.38;1.67;;;;;;;25.19;31.26;100449.31;3467243;28;20046;-70
2021/06/02 07:19:59;;;;;;;2.30;1.70;;;;;;;25.16;31.12;100461.59;3467823;28;20500;-70
2021/06/02 07:21:43;;;;;;;1.95;1.60;;;;;;;25.09;30.83;100452.81;3470624;28;20500;-71
2021/06/02 07:23:24;;;;;;;4.88;1.48;;;;;;;25.11;30.96;100455.28;3469473;28;20045;-71
2021/06/02 07:25:05;;;;;;;3.97;1.73;;;;;;;25.19;30.54;100450.13;3469564;28;20044;-71
2021/06/02 07:26:47;;;;;;;5.38;1.70;;;;;;;25.28;30.57;100444.97;3467038;28;20107;-70
2021/06/02 07:28:36;;;;;;;5.60;1.40;;;;;;;25.20;30.61;100421.78;3469957;28;20041;-72
2021/06/02 07:30:18;;;;;;;1.42;1.08;;;;;;;25.36;30.83;100444.41;3470571;28;20053;-70
2021/06/02 07:31:59;;;;;;;;;;;;;;;25.39;30.93;100443.03;3469686;28;20045;-71
2021/06/02 07:33:39;;;;;;;5.63;1.70;;;;;;;25.24;30.63;100433.75;3470060;28;19990;-71
2021/06/02 07:35:20;;;;;;;1.73;1.30;;;;;;;25.14;30.96;100435.66;3469438;28;20033;-71
2021/06/02 07:37:01;;;;;;;1.63;1.23;;;;;;;25.08;31.14;100443.03;3469907;28;20455;-70
2021/06/02 07:38:42;;;;;;;5.17;1.50;;;;;;;25.13;30.76;100443.03;3470554;28;20041;-71
2021/06/02 07:40:23;;;;;;;2.20;1.20;;;;;;;25.27;30.68;100428.84;3470463;28;20041;-70
2021/06/02 07:42:04;;;;;;;1.63;1.30;;;;;;;25.41;30.63;100433.47;3470219;28;20802;-70
2021/06/02 07:43:45;;;;;;;;;;;;;;;25.63;30.83;100432.34;3471049;28;20111;-70
2021/06/02 07:45:26;;;;;;;2.10;1.30;;;;;;;25.78;30.27;100432.31;3470167;28;20089;-71
2021/06/02 07:47:07;;;;;;;2.73;1.50;;;;;;;25.94;30.00;100433.09;3470241;28;20132;-71
2021/06/02 07:48:48;;;;;;;3.70;1.33;;;;;;;26.05;30.10;100442.09;3470265;28;20049;-71
2021/06/02 07:50:28;;;;;;;2.65;1.45;;;;;;;25.99;29.66;100433.09;3470251;28;20057;-70
2021/06/02 07:52:10;;;;;;;;;;;;;;;26.01;30.31;100430.91;3469922;28;20068;-71
2021/06/02 07:53:51;;;;;;;3.22;1.40;;;;;;;25.96;29.96;100430.09;3470219;28;19975;-71
2021/06/02 07:55:31;;;;;;;4.67;1.60;;;;;;;26.07;29.98;100409.84;3470097;28;20771;-72
2021/06/02 07:57:12;;;;;;;3.20;1.67;;;;;;;26.22;29.65;100420.69;3470188;28;20090;-71
2021/06/02 07:58:53;;;;;;;3.97;1.83;;;;;;;26.38;29.50;100424.16;3470399;28;20076;-71
2021/06/02 08:00:34;;;;;;;5.37;1.73;;;;;;;26.53;29.02;100413.16;3469212;28;20052;-70
2021/06/02 08:02:15;;;;;;;3.47;1.98;;;;;;;26.68;29.37;100401.31;3470090;28;20049;-72
2021/06/02 08:03:56;;;;;;;2.87;1.40;;;;;;;26.88;28.63;100405.00;3469985;28;20580;-71
2021/06/02 08:05:36;;;;;;;3.07;1.67;;;;;;;27.07;28.50;100402.38;3470301;28;20512;-71
2021/06/02 08:07:17;;;;;;;4.33;1.30;;;;;;;27.23;28.58;100395.69;3468985;28;20099;-71
2021/06/02 08:08:58;;;;;;;3.93;1.57;;;;;;;27.34;28.27;100407.38;3469578;28;20052;-72
2021/06/02 08:10:39;;;;;;;2.50;1.10;;;;;;;27.44;28.51;100409.97;3482873;28;20291;-71
2021/06/02 08:12:20;;;;;;;1.52;1.42;;;;;;;27.55;28.07;100403.31;3472386;28;20283;-71
2021/06/02 08:14:01;;;;;;;1.88;1.73;;;;;;;27.70;28.09;100404.22;3469395;28;20060;-71
2021/06/02 08:15:42;;;;;;;5.93;1.77;;;;;;;27.82;27.99;100404.69;3469060;28;20041;-72
2021/06/02 08:17:25;;;;;;;3.72;1.60;;;;;;;27.95;28.10;100401.22;3439280;28;20039;-70
2021/06/02 08:19:05;;;;;;;2.93;1.53;;;;;;;28.07;28.12;100398.06;3452123;28;20170;-71
2021/06/02 08:20:46;;;;;;;4.20;1.77;;;;;;;28.01;27.94;100404.72;3466808;28;20292;-72
2021/06/02 08:22:27;;;;;;;5.40;1.77;;;;;;;27.83;28.13;100407.13;3469103;28;20136;-72
2021/06/02 08:24:08;;;;;;;1.80;1.70;;;;;;;27.77;27.79;100404.69;3466411;28;20045;-71
2021/06/02 08:25:50;;;;;;;3.17;1.83;;;;;;;27.65;28.35;100396.06;3469552;28;20040;-71
2021/06/02 08:27:31;;;;;;;3.85;1.77;;;;;;;27.52;28.05;100408.53;3469763;28;20111;-70
2021/06/02 08:29:12;;;;;;;3.50;1.80;;;;;;;27.54;28.25;100398.91;3469955;28;20124;-71
2021/06/02 08:30:52;;;;;;;3.10;1.80;;;;;;;27.67;28.01;100399.34;3469910;28;20055;-72
2021/06/02 08:32:34;;;;;;;3.70;2.30;;;;;;;27.84;27.90;100395.06;3469760;28;20103;-73
2021/06/02 08:34:16;;;;;;;2.55;1.70;;;;;;;28.04;27.80;100395.91;3469490;28;20516;-71
2021/06/02 08:35:57;;;;;;;3.90;1.98;;;;;;;28.15;27.39;100371.94;3469401;28;20037;-71
2021/06/02 08:37:38;;;;;;;5.68;2.10;;;;;;;28.18;27.45;100388.59;3469387;28;20042;-71
2021/06/02 08:39:19;;;;;;;5.35;2.08;;;;;;;28.22;27.55;100403.34;3469452;28;20075;-71